Details for Jet2 at EGNT




Go Back


Latest METAR
Local Time

EGNT 160920Z 26011KT 9999 FEW022 SCT033 15/10 Q1007
16/08/2018, 10:49:11

Description
Results
Jet2 Logo
Number of Pilots based at EGNT
1 Pilots Based here
Number of Jet2 Flights Departed from EGNT
0 Flights Departed
Number of Jet2 Flights Arrived at EGNT
0 Flights Arrived
Number of Jet2 Schedules Departing from EGNT
55 Schedules
Number of Jet2 Schedules Arriving at EGNT
56 Schedules
Number of Jet2 Schedules Departing from EGNT availible today
9 Schedules Today
Number of Jet2 Schedules Arriving at EGNT availible today
10 Schedules Today
Average Landing Rate at EGNT
-261 fpm
Jet2 Average Landing Rate at EGNT
0 fpm
Total Fuel Purchased at EGNT by Jet2
0.00 kgs / 0.00 lbs

Pilots Based at EGNT


Pilot ID
Pilot Name
Pilot Rank
No. of Flights
No. of Flying Hours
Michael Gow
121
369.02
Content